Manila Express — VRCX7 — position and weather

sailwx.info

Track history (hours):
 
Tides and Currents Weather Stations Pressure Air Temp Water Temp Dewpoint Dewpoint Depression Visibility Wind Speed Wind Dir Waves Ship Positions

Manila Express

Last reported at 2014-Jul-31 23:31 UTC. Time now 2014-Jul-31 23:43 UTC.
Position N 44°24' E 008°54'.

Length 260 m; draft 10.8 m.

Type: Ship (hazmat cat A). MMSI: 477830800.

Date/timePositionNaut miles runAvg speedWind from/ knotsBaromVisibWave heightAir tempDewpointWater temp
2014-Jul-31 23:31N 44°24' E 008°54'0 0.0
2014-Jul-31 22:31N 44°24' E 008°54'0 0.0
2014-Jul-31 21:34N 44°24' E 008°54'0 0.0
2014-Jul-31 20:33N 44°24' E 008°54'0 0.0
2014-Jul-31 19:33N 44°24' E 008°54'0 0.0
2014-Jul-31 18:33N 44°24' E 008°54'0 0.0
2014-Jul-31 17:33N 44°24' E 008°54'0 0.0
2014-Jul-31 16:33N 44°24' E 008°54'0 0.0
2014-Jul-31 15:33N 44°24' E 008°54'0 0.0
2014-Jul-31 14:33N 44°24' E 008°54'0 0.0
2014-Jul-31 13:33N 44°24' E 008°54'0 0.0
2014-Jul-31 12:33N 44°24' E 008°54'0 0.0
2014-Jul-31 11:33N 44°24' E 008°54'1 0.8
2014-Jul-31 10:33N 44°24' E 008°55'5 4.9
2014-Jul-31 09:32N 44°20' E 008°59'8 8.4
2014-Jul-31 08:33N 44°14' E 008°50'1111.4
2014-Jul-31 07:33N 44°07' E 008°38'1211.7
2014-Jul-31 06:33N 43°59' E 008°26'1211.9
2014-Jul-31 05:33N 43°51' E 008°14'1211.9
2014-Jul-31 04:33N 43°44' E 008°01'1212.0
2014-Jul-31 03:33N 43°36' E 007°48'1212.4
2014-Jul-31 02:33N 43°27' E 007°36'1312.9
2014-Jul-31 01:33N 43°19' E 007°22'1312.7
2014-Jul-31 00:33N 43°11' E 007°09'1312.6
2014-Jul-30 23:33N 43°03' E 006°56'1212.4
2014-Jul-30 22:33N 42°54' E 006°43'1212.3
2014-Jul-30 21:33N 42°46' E 006°31'1212.1
2014-Jul-30 20:33N 42°38' E 006°18'1212.3
2014-Jul-30 19:33N 42°30' E 006°05'2511.9
2014-Jul-30 17:28N 42°14' E 005°40'2211.6
2014-Jul-30 15:33N 41°59' E 005°17'1111.2
2014-Jul-30 14:32N 41°52' E 005°06'1311.8
2014-Jul-30 13:27N 41°43' E 004°53'2211.5
2014-Jul-30 11:31N 41°29' E 004°31'1211.6
2014-Jul-30 10:31N 41°21' E 004°19'1211.9
2014-Jul-30 09:32N 41°14' E 004°07'1212.1
2014-Jul-30 08:31N 41°06' E 003°55'1111.2
2014-Jul-30 07:32N 40°58' E 003°44'1212.0
2014-Jul-30 06:33N 40°51' E 003°32'1412.9
2014-Jul-30 05:28N 40°41' E 003°18'1111.6
2014-Jul-30 04:33N 40°35' E 003°07'1212.2
2014-Jul-30 03:33N 40°27' E 002°55'1212.4
2014-Jul-30 02:33N 40°18' E 002°43'1312.5
2014-Jul-30 01:33N 40°10' E 002°31'1312.7
2014-Jul-30 00:33N 40°02' E 002°18'1312.8
2014-Jul-29 23:33N 39°53' E 002°06'1312.9
2014-Jul-29 22:33N 39°45' E 001°53'1412.9
2014-Jul-29 21:31N 39°36' E 001°40'1313.1
2014-Jul-29 20:33N 39°28' E 001°28'1312.8
2014-Jul-29 19:32N 39°18' E 001°17'1912.7
2014-Jul-29 18:03N 39°01' E 001°05'712.3
2014-Jul-29 17:28N 38°55' E 001°00'9311.8
2014-Jul-29 09:32N 37°35' W 000°01'6913.5
2014-Jul-29 04:24N 36°50' W 001°07'27312.2
2014-Jul-28 06:07N 35°55' W 006°39'1112.7
2014-Jul-28 05:13N 35°58' W 006°53'812.7
2014-Jul-28 04:33N 36°01' W 007°03'3112.6
2014-Jul-28 02:05N 36°10' W 007°40'713.0
2014-Jul-28 01:33N 36°12' W 007°48'1312.7
2014-Jul-28 00:33N 36°16' W 008°03'1312.9
2014-Jul-27 23:31N 36°19' W 008°19'1213.0
2014-Jul-27 22:33N 36°23' W 008°34'1312.6
2014-Jul-27 21:31N 36°27' W 008°49'1212.7
2014-Jul-27 20:33N 36°30' W 009°04'1812.5
2014-Jul-27 19:07N 36°39' W 009°24'1013.2
2014-Jul-27 18:23N 36°46' W 009°32'2412.7
2014-Jul-27 16:28N 37°10' W 009°39'1412.9
2014-Jul-27 15:25N 37°23' W 009°44'1113.1
2014-Jul-27 14:33N 37°34' W 009°47'1312.8
2014-Jul-27 13:32N 37°46' W 009°51'1512.4
2014-Jul-27 12:20N 38°01' W 009°54'1012.3
2014-Jul-27 11:33N 38°10' W 009°57'1412.6
2014-Jul-27 10:27N 38°24' W 010°01'1212.4
2014-Jul-27 09:29N 38°36' W 010°05'1212.4
2014-Jul-27 08:33N 38°47' W 010°07'2612.8
2014-Jul-27 06:33N 39°13' W 010°06'1312.5
2014-Jul-27 05:33N 39°25' W 010°07'2512.6
2014-Jul-27 03:33N 39°50' W 010°07'1412.6
2014-Jul-27 02:26N 40°04' W 010°06'1612.4
2014-Jul-27 01:08N 40°21' W 010°06'712.7
2014-Jul-27 00:33N 40°28' W 010°06'1412.7
2014-Jul-26 23:29N 40°42' W 010°07'50813.0
2014-Jul-25 08:27N 48°39' W 006°01'1314.5
2014-Jul-25 07:33N 48°51' W 005°52'1913.8
2014-Jul-25 06:12N 49°00' W 005°28'913.7
2014-Jul-25 05:33N 49°05' W 005°17'1313.1
2014-Jul-25 04:33N 49°12' W 004°60'1312.7
2014-Jul-25 03:33N 49°19' W 004°43'1512.8
2014-Jul-25 02:21N 49°27' W 004°23'5614.3
2014-Jul-24 22:25N 49°55' W 003°08'1213.8
2014-Jul-24 21:33N 49°59' W 002°50'1312.8
2014-Jul-24 20:33N 50°02' W 002°31'1111.3
2014-Jul-24 19:33N 50°04' W 002°14'1110.6
2014-Jul-24 18:33N 50°01' W 001°58'1010.3
2014-Jul-24 17:33N 49°58' W 001°43'1110.8
2014-Jul-24 16:30N 49°53' W 001°27'1212.2
2014-Jul-24 15:32N 49°49' W 001°09'1313.3
2014-Jul-24 14:33N 49°45' W 000°50'1514.6
2014-Jul-24 13:33N 49°39' W 000°30'1414.5
2014-Jul-24 12:33N 49°33' W 000°09'1312.8
2014-Jul-24 11:33N 49°28' E 000°09'0 0.1
2014-Jul-24 10:33N 49°28' E 000°09'0 0.0
2014-Jul-24 09:33N 49°28' E 000°09'0 0.0
2014-Jul-24 08:33N 49°28' E 000°09'0 0.0
2014-Jul-24 07:33N 49°28' E 000°09'0 0.0
2014-Jul-24 06:33N 49°28' E 000°09'0 0.0
2014-Jul-24 05:33N 49°28' E 000°09'0 0.0
2014-Jul-24 04:33N 49°28' E 000°09'3 2.6
2014-Jul-24 03:34N 49°29' E 000°05'1211.9
2014-Jul-24 02:33N 49°33' W 000°12'1010.0
2014-Jul-24 01:33N 49°38' W 000°25'1515.2
2014-Jul-24 00:33N 49°53' W 000°27'2518.5
2014-Jul-23 23:12N 50°17' W 000°14'1517.6
2014-Jul-23 22:22N 50°28' E 000°02'1718.3
2014-Jul-23 21:27N 50°33' E 000°27'1618.1
2014-Jul-23 20:33N 50°41' E 000°48'2318.1
2014-Jul-23 19:17N 50°57' E 001°15'1317.5
2014-Jul-23 18:33N 51°06' E 001°30'1919.3
2014-Jul-23 17:33N 51°19' E 001°52'2121.2
2014-Jul-23 16:33N 51°36' E 002°12'2121.3
2014-Jul-23 15:34N 51°53' E 002°33'2020.1
2014-Jul-23 14:34N 52°03' E 003°01'2020.3
2014-Jul-23 13:33N 52°04' E 003°34'1514.7
2014-Jul-23 12:33N 52°01' E 003°57'1211.5
2014-Jul-23 11:33N 51°56' E 004°14'7 6.9
2014-Jul-23 10:33N 51°53' E 004°24'0 0.4
2014-Jul-23 09:28N 51°53' E 004°24'0 0.0
2014-Jul-23 08:31N 51°53' E 004°24'0 0.0
2014-Jul-23 07:32N 51°53' E 004°24'0 0.0
2014-Jul-23 06:28N 51°53' E 004°24'0 0.0
2014-Jul-23 05:31N 51°53' E 004°24'0 0.0
2014-Jul-23 04:28N 51°53' E 004°24'0 0.0
2014-Jul-23 03:28N 51°53' E 004°24'0 0.0
2014-Jul-23 02:31N 51°53' E 004°24'0 0.0
2014-Jul-23 01:31N 51°53' E 004°24'0 0.0
2014-Jul-23 00:28N 51°53' E 004°24'0 0.0
2014-Jul-22 23:31N 51°53' E 004°24'0 0.0
2014-Jul-22 22:31N 51°53' E 004°24'0 0.0
2014-Jul-22 21:31N 51°53' E 004°24'0 0.0
2014-Jul-22 20:31N 51°53' E 004°24'0 0.0
2014-Jul-22 19:31N 51°53' E 004°24'0 0.0
2014-Jul-22 18:31N 51°53' E 004°24'0 0.0
2014-Jul-22 17:22N 51°53' E 004°24'0 0.0
2014-Jul-22 16:33N 51°53' E 004°24'0 0.0
2014-Jul-22 15:27N 51°53' E 004°24'0 0.0
2014-Jul-22 14:33N 51°53' E 004°24'0 0.0
2014-Jul-22 13:30N 51°53' E 004°24'0 0.0
2014-Jul-22 12:33N 51°53' E 004°24'4 4.0
2014-Jul-22 11:33N 51°54' E 004°18'10 9.7
2014-Jul-22 10:33N 51°59' E 004°05'1212.0
2014-Jul-22 09:33N 52°03' E 003°46'1111.1
2014-Jul-22 08:33N 52°14' E 003°47'1111.0
2014-Jul-22 07:33N 52°25' E 003°49'1313.4
2014-Jul-22 06:33N 52°38' E 003°53'1413.6
2014-Jul-22 05:33N 52°51' E 003°58'1414.3
2014-Jul-22 04:33N 53°03' E 004°11'1515.4
2014-Jul-22 03:33N 53°15' E 004°28'1515.3
2014-Jul-22 02:33N 53°28' E 004°40'1514.9
2014-Jul-22 01:33N 53°35' E 005°02'1514.9
2014-Jul-22 00:33N 53°38' E 005°27'1514.5
2014-Jul-21 23:33N 53°43' E 005°50'  
Track history (hours):
 
Tides and Currents Weather Stations Pressure Air Temp Water Temp Dewpoint Dewpoint Depression Visibility Wind Speed Wind Dir Waves Ship Positions

Manila Express

Last reported at 2014-Jul-31 23:31 UTC. Time now 2014-Jul-31 23:43 UTC.
Position N 44°24' E 008°54'.

Length 260 m; draft 10.8 m.

Type: Ship (hazmat cat A). MMSI: 477830800.

Date/timePositionNaut miles runAvg speedWind from/ knotsBaromVisibWave heightAir tempDewpointWater temp
2014-Jul-31 23:31N 44°24' E 008°54'0 0.0
2014-Jul-31 22:31N 44°24' E 008°54'0 0.0
2014-Jul-31 21:34N 44°24' E 008°54'0 0.0
2014-Jul-31 20:33N 44°24' E 008°54'0 0.0
2014-Jul-31 19:33N 44°24' E 008°54'0 0.0
2014-Jul-31 18:33N 44°24' E 008°54'0 0.0
2014-Jul-31 17:33N 44°24' E 008°54'0 0.0
2014-Jul-31 16:33N 44°24' E 008°54'0 0.0
2014-Jul-31 15:33N 44°24' E 008°54'0 0.0
2014-Jul-31 14:33N 44°24' E 008°54'0 0.0
2014-Jul-31 13:33N 44°24' E 008°54'0 0.0
2014-Jul-31 12:33N 44°24' E 008°54'0 0.0
2014-Jul-31 11:33N 44°24' E 008°54'1 0.8
2014-Jul-31 10:33N 44°24' E 008°55'5 4.9
2014-Jul-31 09:32N 44°20' E 008°59'8 8.4
2014-Jul-31 08:33N 44°14' E 008°50'1111.4
2014-Jul-31 07:33N 44°07' E 008°38'1211.7
2014-Jul-31 06:33N 43°59' E 008°26'1211.9
2014-Jul-31 05:33N 43°51' E 008°14'1211.9
2014-Jul-31 04:33N 43°44' E 008°01'1212.0
2014-Jul-31 03:33N 43°36' E 007°48'1212.4
2014-Jul-31 02:33N 43°27' E 007°36'1312.9
2014-Jul-31 01:33N 43°19' E 007°22'1312.7
2014-Jul-31 00:33N 43°11' E 007°09'1312.6
2014-Jul-30 23:33N 43°03' E 006°56'1212.4
2014-Jul-30 22:33N 42°54' E 006°43'1212.3
2014-Jul-30 21:33N 42°46' E 006°31'1212.1
2014-Jul-30 20:33N 42°38' E 006°18'1212.3
2014-Jul-30 19:33N 42°30' E 006°05'2511.9
2014-Jul-30 17:28N 42°14' E 005°40'2211.6
2014-Jul-30 15:33N 41°59' E 005°17'1111.2
2014-Jul-30 14:32N 41°52' E 005°06'1311.8
2014-Jul-30 13:27N 41°43' E 004°53'2211.5
2014-Jul-30 11:31N 41°29' E 004°31'1211.6
2014-Jul-30 10:31N 41°21' E 004°19'1211.9
2014-Jul-30 09:32N 41°14' E 004°07'1212.1
2014-Jul-30 08:31N 41°06' E 003°55'1111.2
2014-Jul-30 07:32N 40°58' E 003°44'1212.0
2014-Jul-30 06:33N 40°51' E 003°32'1412.9
2014-Jul-30 05:28N 40°41' E 003°18'1111.6
2014-Jul-30 04:33N 40°35' E 003°07'1212.2
2014-Jul-30 03:33N 40°27' E 002°55'1212.4
2014-Jul-30 02:33N 40°18' E 002°43'1312.5
2014-Jul-30 01:33N 40°10' E 002°31'1312.7
2014-Jul-30 00:33N 40°02' E 002°18'1312.8
2014-Jul-29 23:33N 39°53' E 002°06'1312.9
2014-Jul-29 22:33N 39°45' E 001°53'1412.9
2014-Jul-29 21:31N 39°36' E 001°40'1313.1
2014-Jul-29 20:33N 39°28' E 001°28'1312.8
2014-Jul-29 19:32N 39°18' E 001°17'1912.7
2014-Jul-29 18:03N 39°01' E 001°05'712.3
2014-Jul-29 17:28N 38°55' E 001°00'9311.8
2014-Jul-29 09:32N 37°35' W 000°01'6913.5
2014-Jul-29 04:24N 36°50' W 001°07'27312.2
2014-Jul-28 06:07N 35°55' W 006°39'1112.7
2014-Jul-28 05:13N 35°58' W 006°53'812.7
2014-Jul-28 04:33N 36°01' W 007°03'3112.6
2014-Jul-28 02:05N 36°10' W 007°40'713.0
2014-Jul-28 01:33N 36°12' W 007°48'1312.7
2014-Jul-28 00:33N 36°16' W 008°03'1312.9
2014-Jul-27 23:31N 36°19' W 008°19'1213.0
2014-Jul-27 22:33N 36°23' W 008°34'1312.6
2014-Jul-27 21:31N 36°27' W 008°49'1212.7
2014-Jul-27 20:33N 36°30' W 009°04'1812.5
2014-Jul-27 19:07N 36°39' W 009°24'1013.2
2014-Jul-27 18:23N 36°46' W 009°32'2412.7
2014-Jul-27 16:28N 37°10' W 009°39'1412.9
2014-Jul-27 15:25N 37°23' W 009°44'1113.1
2014-Jul-27 14:33N 37°34' W 009°47'1312.8
2014-Jul-27 13:32N 37°46' W 009°51'1512.4
2014-Jul-27 12:20N 38°01' W 009°54'1012.3
2014-Jul-27 11:33N 38°10' W 009°57'1412.6
2014-Jul-27 10:27N 38°24' W 010°01'1212.4
2014-Jul-27 09:29N 38°36' W 010°05'1212.4
2014-Jul-27 08:33N 38°47' W 010°07'2612.8
2014-Jul-27 06:33N 39°13' W 010°06'1312.5
2014-Jul-27 05:33N 39°25' W 010°07'2512.6
2014-Jul-27 03:33N 39°50' W 010°07'1412.6
2014-Jul-27 02:26N 40°04' W 010°06'1612.4
2014-Jul-27 01:08N 40°21' W 010°06'712.7
2014-Jul-27 00:33N 40°28' W 010°06'1412.7
2014-Jul-26 23:29N 40°42' W 010°07'50813.0
2014-Jul-25 08:27N 48°39' W 006°01'1314.5
2014-Jul-25 07:33N 48°51' W 005°52'1913.8
2014-Jul-25 06:12N 49°00' W 005°28'913.7
2014-Jul-25 05:33N 49°05' W 005°17'1313.1
2014-Jul-25 04:33N 49°12' W 004°60'1312.7
2014-Jul-25 03:33N 49°19' W 004°43'1512.8
2014-Jul-25 02:21N 49°27' W 004°23'5614.3
2014-Jul-24 22:25N 49°55' W 003°08'1213.8
2014-Jul-24 21:33N 49°59' W 002°50'1312.8
2014-Jul-24 20:33N 50°02' W 002°31'1111.3
2014-Jul-24 19:33N 50°04' W 002°14'1110.6
2014-Jul-24 18:33N 50°01' W 001°58'1010.3
2014-Jul-24 17:33N 49°58' W 001°43'1110.8
2014-Jul-24 16:30N 49°53' W 001°27'1212.2
2014-Jul-24 15:32N 49°49' W 001°09'1313.3
2014-Jul-24 14:33N 49°45' W 000°50'1514.6
2014-Jul-24 13:33N 49°39' W 000°30'1414.5
2014-Jul-24 12:33N 49°33' W 000°09'1312.8
2014-Jul-24 11:33N 49°28' E 000°09'0 0.1
2014-Jul-24 10:33N 49°28' E 000°09'0 0.0
2014-Jul-24 09:33N 49°28' E 000°09'0 0.0
2014-Jul-24 08:33N 49°28' E 000°09'0 0.0
2014-Jul-24 07:33N 49°28' E 000°09'0 0.0
2014-Jul-24 06:33N 49°28' E 000°09'0 0.0
2014-Jul-24 05:33N 49°28' E 000°09'0 0.0
2014-Jul-24 04:33N 49°28' E 000°09'3 2.6
2014-Jul-24 03:34N 49°29' E 000°05'1211.9
2014-Jul-24 02:33N 49°33' W 000°12'1010.0
2014-Jul-24 01:33N 49°38' W 000°25'1515.2
2014-Jul-24 00:33N 49°53' W 000°27'2518.5
2014-Jul-23 23:12N 50°17' W 000°14'1517.6
2014-Jul-23 22:22N 50°28' E 000°02'1718.3
2014-Jul-23 21:27N 50°33' E 000°27'1618.1
2014-Jul-23 20:33N 50°41' E 000°48'2318.1
2014-Jul-23 19:17N 50°57' E 001°15'1317.5
2014-Jul-23 18:33N 51°06' E 001°30'1919.3
2014-Jul-23 17:33N 51°19' E 001°52'2121.2
2014-Jul-23 16:33N 51°36' E 002°12'2121.3
2014-Jul-23 15:34N 51°53' E 002°33'2020.1
2014-Jul-23 14:34N 52°03' E 003°01'2020.3
2014-Jul-23 13:33N 52°04' E 003°34'1514.7
2014-Jul-23 12:33N 52°01' E 003°57'1211.5
2014-Jul-23 11:33N 51°56' E 004°14'7 6.9
2014-Jul-23 10:33N 51°53' E 004°24'0 0.4
2014-Jul-23 09:28N 51°53' E 004°24'0 0.0
2014-Jul-23 08:31N 51°53' E 004°24'0 0.0
2014-Jul-23 07:32N 51°53' E 004°24'0 0.0
2014-Jul-23 06:28N 51°53' E 004°24'0 0.0
2014-Jul-23 05:31N 51°53' E 004°24'0 0.0
2014-Jul-23 04:28N 51°53' E 004°24'0 0.0
2014-Jul-23 03:28N 51°53' E 004°24'0 0.0
2014-Jul-23 02:31N 51°53' E 004°24'0 0.0
2014-Jul-23 01:31N 51°53' E 004°24'0 0.0
2014-Jul-23 00:28N 51°53' E 004°24'0 0.0
2014-Jul-22 23:31N 51°53' E 004°24'0 0.0
2014-Jul-22 22:31N 51°53' E 004°24'0 0.0
2014-Jul-22 21:31N 51°53' E 004°24'0 0.0
2014-Jul-22 20:31N 51°53' E 004°24'0 0.0
2014-Jul-22 19:31N 51°53' E 004°24'0 0.0
2014-Jul-22 18:31N 51°53' E 004°24'0 0.0
2014-Jul-22 17:22N 51°53' E 004°24'0 0.0
2014-Jul-22 16:33N 51°53' E 004°24'0 0.0
2014-Jul-22 15:27N 51°53' E 004°24'0 0.0
2014-Jul-22 14:33N 51°53' E 004°24'0 0.0
2014-Jul-22 13:30N 51°53' E 004°24'0 0.0
2014-Jul-22 12:33N 51°53' E 004°24'4 4.0
2014-Jul-22 11:33N 51°54' E 004°18'10 9.7
2014-Jul-22 10:33N 51°59' E 004°05'1212.0
2014-Jul-22 09:33N 52°03' E 003°46'1111.1
2014-Jul-22 08:33N 52°14' E 003°47'1111.0
2014-Jul-22 07:33N 52°25' E 003°49'1313.4
2014-Jul-22 06:33N 52°38' E 003°53'1413.6
2014-Jul-22 05:33N 52°51' E 003°58'1414.3
2014-Jul-22 04:33N 53°03' E 004°11'1515.4
2014-Jul-22 03:33N 53°15' E 004°28'1515.3
2014-Jul-22 02:33N 53°28' E 004°40'1514.9
2014-Jul-22 01:33N 53°35' E 005°02'1514.9
2014-Jul-22 00:33N 53°38' E 005°27'1514.5
2014-Jul-21 23:33N 53°43' E 005°50'  

Dump ship's entire track history